createdAt,value
2018-08-18T00:00:07.641Z,20.80
2018-08-18T00:02:37.887Z,20.70
2018-08-18T00:05:07.907Z,20.80
2018-08-18T00:07:36.311Z,21.00
2018-08-18T00:10:07.714Z,21.00
2018-08-18T00:12:36.953Z,21.10
2018-08-18T00:15:06.439Z,21.20
2018-08-18T00:17:35.898Z,21.20
2018-08-18T00:20:06.546Z,21.30
2018-08-18T00:22:34.925Z,21.30
2018-08-18T00:25:03.835Z,21.30
2018-08-18T00:27:32.389Z,21.40
2018-08-18T00:30:06.559Z,21.30
2018-08-18T00:32:34.967Z,21.20
2018-08-18T00:35:03.629Z,20.60
2018-08-18T00:37:32.062Z,20.60
2018-08-18T00:40:00.483Z,20.80
2018-08-18T00:42:28.923Z,21.10
2018-08-18T00:44:57.416Z,21.10
2018-08-18T00:47:26.137Z,21.00
2018-08-18T00:49:57.790Z,21.10
2018-08-18T00:52:29.057Z,21.20
2018-08-18T00:54:57.512Z,20.90
2018-08-18T00:57:31.261Z,20.80
2018-08-18T00:59:59.939Z,20.80
2018-08-18T01:02:28.924Z,20.70
2018-08-18T01:05:00.951Z,20.80
2018-08-18T01:07:31.755Z,20.90
2018-08-18T01:10:00.829Z,20.80
2018-08-18T01:12:29.375Z,20.90
2018-08-18T01:14:58.683Z,20.90
2018-08-18T01:17:28.254Z,20.90
2018-08-18T01:19:58.984Z,21.00
2018-08-18T01:22:27.432Z,21.00
2018-08-18T01:24:55.849Z,21.00
2018-08-18T01:27:24.340Z,20.90
2018-08-18T01:29:58.184Z,20.80
2018-08-18T01:32:26.651Z,20.80
2018-08-18T01:34:55.165Z,20.60
2018-08-18T01:37:23.611Z,20.60
2018-08-18T01:39:53.855Z,20.70
2018-08-18T01:42:22.846Z,20.70
2018-08-18T01:44:52.713Z,20.70
2018-08-18T01:47:21.119Z,20.70
2018-08-18T01:49:49.556Z,20.60
2018-08-18T01:52:22.829Z,20.50
2018-08-18T01:54:51.309Z,20.60
2018-08-18T01:57:20.622Z,20.80
2018-08-18T01:59:49.366Z,20.80
2018-08-18T02:02:21.069Z,20.90
2018-08-18T02:04:49.923Z,20.80
2018-08-18T02:07:25.537Z,20.70
2018-08-18T02:09:54.705Z,20.80
2018-08-18T02:12:23.363Z,20.90
2018-08-18T02:14:52.041Z,20.90
2018-08-18T02:17:24.837Z,21.00
2018-08-18T02:19:53.530Z,20.70
2018-08-18T02:22:22.635Z,20.60
2018-08-18T02:24:51.146Z,20.60
2018-08-18T02:27:19.690Z,20.70
2018-08-18T02:29:59.841Z,20.80
2018-08-18T02:32:29.983Z,20.70
2018-08-18T02:34:58.661Z,20.60
2018-08-18T02:37:27.934Z,20.70
2018-08-18T02:39:56.450Z,20.80
2018-08-18T02:42:25.308Z,20.80
2018-08-18T02:44:54.300Z,20.80
2018-08-18T02:47:23.397Z,20.60
2018-08-18T02:49:52.915Z,20.60
2018-08-18T02:52:25.388Z,20.70
2018-08-18T02:54:55.510Z,20.70
2018-08-18T02:57:30.197Z,20.70
2018-08-18T03:00:00.927Z,20.60
2018-08-18T03:02:29.345Z,20.70
2018-08-18T03:04:57.774Z,20.70
2018-08-18T03:07:28.825Z,20.70
2018-08-18T03:09:57.244Z,20.70
2018-08-18T03:12:28.990Z,20.60
2018-08-18T03:14:57.431Z,20.60
2018-08-18T03:17:25.792Z,20.70
2018-08-18T03:19:54.445Z,20.70
2018-08-18T03:22:27.150Z,20.70
2018-08-18T03:24:55.580Z,20.80
2018-08-18T03:27:23.941Z,20.80
2018-08-18T03:29:52.396Z,20.60
2018-08-18T03:32:21.875Z,20.60
2018-08-18T03:34:50.346Z,20.60
2018-08-18T03:37:27.379Z,20.60
2018-08-18T03:39:56.106Z,20.50
2018-08-18T03:42:30.371Z,20.60
2018-08-18T03:44:58.745Z,20.70
2018-08-18T03:47:27.713Z,20.80
2018-08-18T03:49:56.111Z,20.60
2018-08-18T03:52:24.536Z,20.40
2018-08-18T03:54:52.850Z,20.40
2018-08-18T03:57:47.134Z,20.40
2018-08-18T04:00:16.373Z,20.50
2018-08-18T04:02:44.740Z,20.60
2018-08-18T04:05:13.176Z,20.60
2018-08-18T04:07:48.446Z,20.60
2018-08-18T04:10:18.671Z,20.60
2018-08-18T04:12:47.240Z,20.70
2018-08-18T04:15:15.661Z,20.50
2018-08-18T04:17:50.859Z,20.40
2018-08-18T04:20:19.295Z,20.40
2018-08-18T04:22:47.734Z,20.50
2018-08-18T04:25:16.260Z,20.60
2018-08-18T04:27:47.271Z,20.80
2018-08-18T04:30:19.033Z,20.70
2018-08-18T04:32:53.239Z,20.70
2018-08-18T04:35:23.902Z,20.60
2018-08-18T04:37:53.283Z,20.60
2018-08-18T04:40:22.349Z,20.50
2018-08-18T04:42:50.938Z,20.50
2018-08-18T04:45:20.658Z,20.60
2018-08-18T04:47:49.107Z,20.60
2018-08-18T04:50:17.560Z,20.60
2018-08-18T04:52:46.299Z,20.70
2018-08-18T04:55:15.614Z,20.60
2018-08-18T04:57:44.511Z,20.40
2018-08-18T05:00:14.555Z,20.40
2018-08-18T05:02:59.685Z,20.50
2018-08-18T05:05:30.118Z,20.50
2018-08-18T05:07:59.503Z,20.50
2018-08-18T05:10:28.163Z,20.50
2018-08-18T05:12:56.623Z,20.50
2018-08-18T05:15:25.184Z,20.40
2018-08-18T05:17:53.575Z,20.40
2018-08-18T05:20:23.846Z,20.50
2018-08-18T05:22:52.547Z,20.60
2018-08-18T05:25:26.943Z,20.60
2018-08-18T05:27:55.618Z,20.70
2018-08-18T05:30:24.250Z,20.80
2018-08-18T05:32:52.658Z,20.80
2018-08-18T05:35:21.121Z,20.80
2018-08-18T05:37:49.603Z,20.90
2018-08-18T05:40:18.090Z,21.00
2018-08-18T05:42:46.659Z,21.00
2018-08-18T05:45:32.823Z,21.10
2018-08-18T05:48:01.360Z,21.20
2018-08-18T05:50:30.156Z,21.20
2018-08-18T05:53:13.612Z,21.20
2018-08-18T05:55:42.015Z,21.10
2018-08-18T05:58:10.842Z,21.10
2018-08-18T06:00:39.573Z,21.10
2018-08-18T06:03:08.019Z,21.10
2018-08-18T06:05:36.526Z,21.20
2018-08-18T06:08:05.329Z,21.20
2018-08-18T06:10:33.899Z,21.20
2018-08-18T06:13:07.834Z,21.30
2018-08-18T06:15:36.259Z,21.40
2018-08-18T06:18:04.633Z,21.40
2018-08-18T06:20:33.131Z,21.40
2018-08-18T06:23:01.592Z,21.30
2018-08-18T06:25:30.071Z,21.40
2018-08-18T06:27:58.473Z,21.30
2018-08-18T06:30:26.979Z,21.30
2018-08-18T06:32:55.499Z,21.30
2018-08-18T06:35:23.960Z,21.40
2018-08-18T06:37:59.211Z,21.50
2018-08-18T06:40:27.803Z,21.30
2018-08-18T06:42:56.255Z,21.30
2018-08-18T06:45:24.663Z,21.30
2018-08-18T06:47:54.460Z,21.20
2018-08-18T06:50:27.115Z,21.20
2018-08-18T06:52:55.502Z,21.30
2018-08-18T06:55:23.927Z,21.30
2018-08-18T06:57:53.639Z,21.40
2018-08-18T07:00:23.325Z,21.50
2018-08-18T07:02:51.758Z,21.60
2018-08-18T07:05:23.274Z,21.60
2018-08-18T07:07:51.692Z,21.70
2018-08-18T07:10:38.124Z,21.70
2018-08-18T07:13:12.350Z,21.70
2018-08-18T07:15:44.558Z,21.70
2018-08-18T07:18:14.250Z,21.60
2018-08-18T07:20:43.889Z,21.40
2018-08-18T07:23:12.474Z,21.50
2018-08-18T07:25:48.449Z,21.50
2018-08-18T07:28:23.581Z,21.60
2018-08-18T07:30:54.972Z,21.40
2018-08-18T07:33:23.622Z,21.50
2018-08-18T07:35:52.049Z,21.80
2018-08-18T07:38:22.612Z,22.00
2018-08-18T07:40:52.772Z,22.10
2018-08-18T07:43:31.073Z,22.30
2018-08-18T07:46:02.378Z,22.30
2018-08-18T07:48:31.360Z,22.40
2018-08-18T07:50:59.864Z,22.50
2018-08-18T07:53:28.519Z,22.60
2018-08-18T07:55:59.662Z,22.70
2018-08-18T07:58:28.152Z,22.50
2018-08-18T08:00:58.549Z,22.50
2018-08-18T08:03:30.160Z,22.60
2018-08-18T08:05:58.589Z,22.60
2018-08-18T08:08:33.900Z,22.60
2018-08-18T08:11:07.327Z,22.60
2018-08-18T08:13:36.039Z,22.60
2018-08-18T08:16:04.644Z,22.70
2018-08-18T08:18:33.063Z,22.70
2018-08-18T08:21:01.585Z,22.90
2018-08-18T08:23:30.104Z,23.10
2018-08-18T08:26:00.319Z,23.20
2018-08-18T08:28:28.795Z,23.30
2018-08-18T08:30:57.462Z,23.30
2018-08-18T08:33:33.461Z,23.50
2018-08-18T08:36:01.902Z,23.60
2018-08-18T08:38:41.787Z,23.50
2018-08-18T08:41:12.336Z,23.50
2018-08-18T08:43:40.847Z,23.50
2018-08-18T08:46:09.228Z,23.50
2018-08-18T08:48:37.652Z,23.40
2018-08-18T08:51:06.203Z,23.20
2018-08-18T08:53:34.611Z,23.30
2018-08-18T08:56:03.084Z,22.80
2018-08-18T08:58:31.853Z,22.90
2018-08-18T09:01:00.256Z,23.10
2018-08-18T09:03:28.743Z,23.40
2018-08-18T09:05:57.191Z,23.50
2018-08-18T09:08:25.574Z,23.50
2018-08-18T09:10:54.166Z,23.60
2018-08-18T09:13:22.607Z,23.70
2018-08-18T09:15:51.086Z,23.80
2018-08-18T09:18:19.702Z,23.70
2018-08-18T09:20:48.069Z,23.80
2018-08-18T09:23:16.508Z,23.60
2018-08-18T09:25:44.898Z,23.50
2018-08-18T09:28:13.316Z,23.40
2018-08-18T09:30:41.928Z,23.40
2018-08-18T09:33:10.354Z,23.60
2018-08-18T09:35:55.198Z,23.60
2018-08-18T09:38:23.672Z,23.70
2018-08-18T09:40:52.038Z,23.70
2018-08-18T09:43:23.271Z,23.70
2018-08-18T09:45:52.867Z,23.80
2018-08-18T09:48:21.369Z,23.70
2018-08-18T09:50:49.823Z,23.70
2018-08-18T09:53:18.223Z,23.90
2018-08-18T09:55:46.728Z,23.80
2018-08-18T09:58:15.222Z,23.70
2018-08-18T10:00:43.630Z,23.90
2018-08-18T10:03:12.068Z,24.00
2018-08-18T10:05:40.905Z,24.00
2018-08-18T10:08:09.937Z,24.00
2018-08-18T10:10:38.444Z,24.10
2018-08-18T10:13:07.042Z,24.20
2018-08-18T10:15:35.833Z,24.00
2018-08-18T10:18:04.274Z,24.20
2018-08-18T10:20:36.919Z,24.30
2018-08-18T10:23:05.392Z,24.30
2018-08-18T10:25:33.780Z,24.40
2018-08-18T10:28:02.154Z,24.40
2018-08-18T10:30:30.708Z,24.40
2018-08-18T10:32:59.163Z,24.40
2018-08-18T10:35:31.071Z,24.50
2018-08-18T10:38:01.017Z,24.50
2018-08-18T10:40:29.456Z,24.60
2018-08-18T10:42:57.870Z,24.60
2018-08-18T10:45:26.273Z,24.50
2018-08-18T10:47:54.808Z,24.30
2018-08-18T10:51:39.271Z,24.10
2018-08-18T10:54:07.675Z,24.00
2018-08-18T10:56:36.102Z,24.00
2018-08-18T10:59:16.613Z,24.20
2018-08-18T11:02:06.355Z,24.30
2018-08-18T11:04:36.007Z,24.50
2018-08-18T11:07:05.037Z,24.60
2018-08-18T11:09:33.999Z,24.60
2018-08-18T11:12:03.056Z,24.60
2018-08-18T11:14:31.473Z,24.70
2018-08-18T11:16:59.871Z,24.90
2018-08-18T11:19:28.330Z,25.00
2018-08-18T11:22:08.396Z,25.00
2018-08-18T11:24:36.838Z,25.00
2018-08-18T11:27:05.188Z,25.00
2018-08-18T11:29:33.624Z,25.00
2018-08-18T11:32:02.078Z,25.20
2018-08-18T11:34:30.466Z,25.20
2018-08-18T11:37:02.813Z,25.40
2018-08-18T11:39:31.982Z,25.40
2018-08-18T11:42:00.712Z,25.30
2018-08-18T11:44:29.320Z,25.30
2018-08-18T11:46:57.800Z,25.30
2018-08-18T11:49:26.228Z,25.30
2018-08-18T11:51:55.539Z,25.30
2018-08-18T11:54:24.059Z,25.30
2018-08-18T11:56:54.048Z,25.40
2018-08-18T11:59:22.432Z,25.50
2018-08-18T12:01:53.614Z,25.50
2018-08-18T12:04:22.715Z,25.50
2018-08-18T12:06:58.008Z,25.30
2018-08-18T12:09:26.748Z,25.30
2018-08-18T12:11:55.264Z,25.50
2018-08-18T12:14:23.680Z,25.50
2018-08-18T12:16:52.318Z,25.50
2018-08-18T12:19:20.907Z,25.50
2018-08-18T12:21:49.334Z,25.50
2018-08-18T12:24:19.168Z,25.50
2018-08-18T12:26:59.054Z,25.40
2018-08-18T12:29:29.280Z,25.30
2018-08-18T12:31:57.824Z,25.30
2018-08-18T12:34:26.199Z,25.20
2018-08-18T12:36:54.638Z,25.40
2018-08-18T12:39:23.071Z,25.60
2018-08-18T12:41:52.116Z,25.80
2018-08-18T12:44:24.771Z,25.80
2018-08-18T12:46:53.328Z,25.80
2018-08-18T12:49:21.908Z,25.90
2018-08-18T12:51:50.494Z,25.90
2018-08-18T12:54:18.974Z,26.00
2018-08-18T12:56:47.560Z,25.90
2018-08-18T12:59:15.979Z,25.80
2018-08-18T13:01:46.668Z,25.80
2018-08-18T13:04:19.706Z,25.70
2018-08-18T13:06:50.224Z,25.80
2018-08-18T13:09:19.954Z,25.80
2018-08-18T13:11:50.453Z,25.70
2018-08-18T13:14:20.487Z,25.60
2018-08-18T13:16:48.927Z,25.70
2018-08-18T13:19:19.149Z,25.80
2018-08-18T13:21:47.674Z,25.80
2018-08-18T13:24:16.330Z,25.90
2018-08-18T13:26:44.739Z,25.90
2018-08-18T13:29:13.163Z,25.90
2018-08-18T13:31:44.363Z,25.90
2018-08-18T13:34:15.327Z,25.90
2018-08-18T13:36:44.634Z,26.00
2018-08-18T13:39:16.858Z,26.00
2018-08-18T13:41:47.929Z,26.00
2018-08-18T13:44:26.930Z,26.00
2018-08-18T13:46:55.511Z,25.90
2018-08-18T13:49:26.021Z,26.00
2018-08-18T13:51:54.517Z,26.00
2018-08-18T13:54:22.955Z,25.90
2018-08-18T13:56:51.376Z,25.90
2018-08-18T13:59:43.282Z,25.80
2018-08-18T14:02:11.791Z,25.80
2018-08-18T14:04:41.034Z,25.70
2018-08-18T14:07:09.855Z,25.70
2018-08-18T14:09:38.700Z,25.70
2018-08-18T14:12:12.500Z,25.60
2018-08-18T14:14:40.995Z,25.60
2018-08-18T14:17:10.511Z,25.70
2018-08-18T14:19:38.935Z,25.80
2018-08-18T14:22:08.900Z,25.70
2018-08-18T14:24:44.514Z,25.60
2018-08-18T14:27:16.943Z,25.60
2018-08-18T14:29:45.730Z,25.70
2018-08-18T14:32:22.100Z,25.80
2018-08-18T14:34:58.826Z,25.90
2018-08-18T14:37:27.288Z,25.90
2018-08-18T14:39:55.731Z,25.90
2018-08-18T14:42:24.126Z,25.90
2018-08-18T14:44:55.226Z,25.90
2018-08-18T14:47:23.884Z,25.80
2018-08-18T14:50:28.683Z,25.80
2018-08-18T14:52:57.248Z,25.80
2018-08-18T14:55:25.639Z,25.80
2018-08-18T14:57:59.681Z,25.80
2018-08-18T15:00:28.081Z,25.80
2018-08-18T15:02:56.558Z,25.80
2018-08-18T15:05:24.918Z,25.60
2018-08-18T15:07:55.483Z,25.50
2018-08-18T15:10:36.552Z,25.50
2018-08-18T15:13:05.689Z,25.50
2018-08-18T15:15:34.731Z,25.50
2018-08-18T15:18:04.450Z,25.60
2018-08-18T15:20:33.919Z,25.70
2018-08-18T15:23:03.158Z,25.80
2018-08-18T15:25:32.382Z,25.70
2018-08-18T15:28:02.494Z,25.70
2018-08-18T15:30:31.028Z,25.70
2018-08-18T15:32:59.445Z,25.70
2018-08-18T15:35:28.036Z,25.80
2018-08-18T15:37:57.471Z,25.80
2018-08-18T15:40:27.739Z,25.80
2018-08-18T15:42:57.079Z,25.80
2018-08-18T15:45:25.608Z,25.80
2018-08-18T15:47:54.015Z,25.70
2018-08-18T15:50:22.933Z,25.70
2018-08-18T15:52:51.363Z,25.70
2018-08-18T15:55:19.761Z,25.80
2018-08-18T15:57:48.176Z,25.80
2018-08-18T16:00:41.897Z,25.80
2018-08-18T16:03:10.334Z,25.80
2018-08-18T16:05:38.762Z,25.80
2018-08-18T16:08:07.224Z,25.80
2018-08-18T16:10:35.680Z,25.80
2018-08-18T16:13:04.079Z,25.70
2018-08-18T16:15:32.524Z,25.70
2018-08-18T16:18:00.967Z,25.70
2018-08-18T16:20:29.427Z,25.60
2018-08-18T16:22:58.847Z,25.60
2018-08-18T16:25:33.670Z,25.70
2018-08-18T16:28:02.361Z,25.60
2018-08-18T16:30:30.811Z,25.60
2018-08-18T16:33:11.247Z,25.60
2018-08-18T16:35:41.045Z,25.60
2018-08-18T16:38:09.603Z,25.50
2018-08-18T16:40:38.602Z,25.50
2018-08-18T16:43:08.361Z,25.50
2018-08-18T16:45:36.790Z,25.50
2018-08-18T16:48:06.186Z,25.50
2018-08-18T16:50:35.757Z,25.60
2018-08-18T16:53:05.644Z,25.60
2018-08-18T16:55:35.333Z,25.50
2018-08-18T16:58:03.800Z,25.50
2018-08-18T17:00:32.594Z,25.50
2018-08-18T17:03:01.420Z,25.50
2018-08-18T17:05:30.203Z,25.50
2018-08-18T17:07:58.665Z,25.40
2018-08-18T17:10:27.045Z,25.30
2018-08-18T17:12:59.049Z,25.30
2018-08-18T17:15:27.746Z,25.40
2018-08-18T17:17:56.253Z,25.40
2018-08-18T17:20:24.850Z,25.40
2018-08-18T17:22:53.290Z,25.30
2018-08-18T17:25:23.628Z,25.30
2018-08-18T17:27:52.278Z,25.30
2018-08-18T17:30:20.673Z,25.20
2018-08-18T17:32:49.134Z,25.20
2018-08-18T17:35:17.722Z,25.10
2018-08-18T17:37:46.135Z,25.10
2018-08-18T17:40:14.561Z,25.10
2018-08-18T17:42:43.023Z,25.10
2018-08-18T17:45:11.441Z,25.10
2018-08-18T17:47:44.215Z,25.00
2018-08-18T17:50:12.820Z,25.00
2018-08-18T17:52:41.584Z,25.00
2018-08-18T17:55:14.197Z,24.90
2018-08-18T17:57:42.745Z,24.90
2018-08-18T18:00:19.018Z,24.90
2018-08-18T18:02:54.316Z,24.80
2018-08-18T18:05:31.375Z,24.80
2018-08-18T18:08:01.825Z,24.70
2018-08-18T18:10:32.626Z,24.70
2018-08-18T18:13:01.209Z,24.70
2018-08-18T18:15:31.296Z,24.70
2018-08-18T18:17:59.969Z,24.70
2018-08-18T18:20:30.105Z,24.60
2018-08-18T18:22:58.877Z,24.60
2018-08-18T18:25:27.368Z,24.60
2018-08-18T18:27:55.803Z,24.50
2018-08-18T18:30:27.867Z,24.50
2018-08-18T18:32:56.857Z,24.50
2018-08-18T18:35:25.666Z,24.40
2018-08-18T18:37:57.891Z,24.40
2018-08-18T18:40:26.491Z,24.30
2018-08-18T18:42:54.939Z,24.30
2018-08-18T18:45:24.600Z,24.20
2018-08-18T18:47:53.105Z,24.20
2018-08-18T18:50:21.552Z,24.20
2018-08-18T18:52:51.571Z,24.20
2018-08-18T18:55:19.996Z,24.10
2018-08-18T18:58:02.021Z,24.10
2018-08-18T19:00:31.872Z,24.10
2018-08-18T19:03:00.327Z,24.00
2018-08-18T19:05:30.009Z,24.00
2018-08-18T19:08:01.665Z,24.00
2018-08-18T19:10:30.091Z,23.90
2018-08-18T19:12:58.547Z,23.90
2018-08-18T19:15:28.121Z,23.90
2018-08-18T19:17:56.699Z,23.90
2018-08-18T19:20:26.995Z,23.80
2018-08-18T19:23:07.090Z,23.80
2018-08-18T19:25:36.527Z,23.80
2018-08-18T19:28:05.092Z,23.80
2018-08-18T19:30:34.317Z,23.70
2018-08-18T19:33:03.161Z,23.70
2018-08-18T19:35:36.653Z,23.70
2018-08-18T19:38:06.017Z,23.70
2018-08-18T19:40:35.438Z,23.60
2018-08-18T19:43:09.175Z,23.60
2018-08-18T19:45:37.595Z,23.60
2018-08-18T19:48:06.028Z,23.50
2018-08-18T19:50:34.474Z,23.60
2018-08-18T19:53:08.299Z,23.40
2018-08-18T19:55:36.736Z,23.40
2018-08-18T19:58:05.407Z,23.40
2018-08-18T20:00:33.849Z,23.40
2018-08-18T20:03:06.019Z,23.30
2018-08-18T20:05:34.519Z,23.10
2018-08-18T20:08:03.003Z,23.10
2018-08-18T20:10:33.150Z,23.00
2018-08-18T20:13:01.647Z,23.00
2018-08-18T20:15:30.083Z,23.00
2018-08-18T20:17:58.486Z,23.00
2018-08-18T20:20:26.905Z,23.00
2018-08-18T20:22:55.280Z,23.00
2018-08-18T20:25:23.728Z,23.10
2018-08-18T20:27:52.160Z,23.00
2018-08-18T20:30:20.585Z,23.10
2018-08-18T20:32:49.055Z,23.00
2018-08-18T20:35:17.499Z,23.00
2018-08-18T20:37:45.937Z,23.00
2018-08-18T20:40:14.408Z,22.90
2018-08-18T20:42:43.851Z,22.90
2018-08-18T20:45:13.029Z,22.80
2018-08-18T20:47:43.067Z,22.80
2018-08-18T20:50:12.238Z,22.70
2018-08-18T20:52:41.042Z,22.70
2018-08-18T20:55:09.940Z,22.70
2018-08-18T20:57:38.494Z,22.70
2018-08-18T21:00:08.627Z,22.70
2018-08-18T21:02:37.003Z,22.70
2018-08-18T21:05:06.873Z,22.70
2018-08-18T21:07:35.983Z,22.60
2018-08-18T21:10:08.402Z,22.60
2018-08-18T21:12:42.290Z,22.50
2018-08-18T21:15:11.587Z,22.50
2018-08-18T21:17:39.990Z,22.50
2018-08-18T21:20:12.471Z,22.40
2018-08-18T21:22:40.871Z,22.40
2018-08-18T21:25:10.766Z,22.40
2018-08-18T21:27:39.446Z,22.40
2018-08-18T21:30:15.157Z,22.40
2018-08-18T21:32:43.718Z,22.30
2018-08-18T21:35:12.526Z,22.10
2018-08-18T21:37:41.368Z,21.90
2018-08-18T21:40:10.582Z,22.00
2018-08-18T21:42:39.298Z,22.00
2018-08-18T21:45:10.246Z,22.10
2018-08-18T21:47:38.888Z,22.10
2018-08-18T21:50:07.503Z,22.10
2018-08-18T21:52:35.933Z,22.10
2018-08-18T21:55:04.382Z,22.10
2018-08-18T21:57:43.203Z,22.10
2018-08-18T22:00:11.664Z,22.00
2018-08-18T22:02:42.584Z,21.90
2018-08-18T22:05:12.767Z,21.90
2018-08-18T22:07:46.748Z,22.00
2018-08-18T22:10:15.107Z,21.90
2018-08-18T22:12:43.851Z,21.70
2018-08-18T22:15:22.358Z,21.70
2018-08-18T22:17:51.956Z,21.80
2018-08-18T22:20:21.486Z,21.80
2018-08-18T22:22:49.999Z,21.80
2018-08-18T22:25:18.463Z,21.80
2018-08-18T22:27:46.886Z,21.70
2018-08-18T22:30:16.307Z,21.70
2018-08-18T22:32:46.106Z,21.70
2018-08-18T22:35:14.919Z,21.70
2018-08-18T22:37:43.347Z,21.70
2018-08-18T22:40:12.459Z,21.60
2018-08-18T22:42:40.860Z,21.70
2018-08-18T22:45:21.035Z,21.60
2018-08-18T22:47:49.495Z,21.60
2018-08-18T22:50:17.908Z,21.70
2018-08-18T22:52:49.686Z,21.60
2018-08-18T22:55:18.459Z,21.60
2018-08-18T22:57:51.163Z,21.60
2018-08-18T23:00:19.563Z,21.60
2018-08-18T23:02:48.389Z,21.50
2018-08-18T23:05:18.823Z,21.50
2018-08-18T23:07:49.997Z,21.50
2018-08-18T23:10:18.534Z,21.50
2018-08-18T23:12:47.025Z,21.50
2018-08-18T23:15:15.495Z,21.40
2018-08-18T23:17:43.942Z,21.40
2018-08-18T23:20:12.422Z,21.30
2018-08-18T23:22:53.864Z,21.30
2018-08-18T23:25:23.182Z,21.30
2018-08-18T23:27:51.774Z,21.30
2018-08-18T23:30:23.875Z,21.30
2018-08-18T23:32:52.468Z,21.30
2018-08-18T23:35:23.446Z,21.20
2018-08-18T23:37:52.259Z,21.30
2018-08-18T23:40:20.653Z,21.30
2018-08-18T23:42:49.362Z,21.20
2018-08-18T23:45:17.798Z,21.10
2018-08-18T23:47:53.110Z,21.00
2018-08-18T23:50:21.771Z,21.00
2018-08-18T23:52:58.051Z,21.00
2018-08-18T23:55:27.666Z,21.00
2018-08-18T23:57:56.252Z,21.00
